createdAt,value
2023-05-05T01:05:27.108Z,101298.77
2023-05-05T01:08:09.121Z,101297.02
2023-05-05T01:10:42.256Z,101299.83
2023-05-05T01:13:39.801Z,101295.45
2023-05-05T01:16:24.399Z,101292.66
2023-05-05T01:18:57.682Z,101289.00
2023-05-05T01:21:35.372Z,101288.11
2023-05-05T01:24:22.392Z,101284.98
2023-05-05T01:27:13.715Z,101287.96
2023-05-05T01:29:40.352Z,101289.02
2023-05-05T01:32:12.429Z,101289.92
2023-05-05T01:34:44.549Z,101291.16
2023-05-05T01:37:17.549Z,101289.77
2023-05-05T01:39:50.072Z,101285.05
2023-05-05T01:42:17.956Z,101283.13
2023-05-05T01:44:46.889Z,101280.16
2023-05-05T01:47:17.743Z,101277.20
2023-05-05T01:49:46.691Z,101275.46
2023-05-05T01:52:15.454Z,101274.25
2023-05-05T01:54:43.699Z,101274.27
2023-05-05T01:57:12.162Z,101273.57
2023-05-05T01:59:39.113Z,101274.46
2023-05-05T02:02:08.449Z,101273.44
2023-05-05T02:04:40.383Z,101274.15
2023-05-05T02:07:08.156Z,101273.45
2023-05-05T02:09:36.635Z,101270.13
2023-05-05T02:12:03.987Z,101267.52
2023-05-05T02:14:32.182Z,101265.60
2023-05-05T02:16:59.034Z,101261.94
2023-05-05T02:19:31.421Z,101261.41
2023-05-05T02:21:57.728Z,101257.91
2023-05-05T02:24:25.725Z,101253.20
2023-05-05T02:26:56.299Z,101255.66
2023-05-05T02:29:43.613Z,101257.77
2023-05-05T02:32:16.297Z,101253.05
2023-05-05T02:34:46.417Z,101255.34
2023-05-05T02:37:20.648Z,101253.59
2023-05-05T02:39:58.094Z,101249.58
2023-05-05T02:42:29.308Z,101247.14
2023-05-05T02:45:01.301Z,101243.80
2023-05-05T02:47:35.192Z,101244.86
2023-05-05T02:50:03.095Z,101246.45
2023-05-05T02:52:29.817Z,101245.56
2023-05-05T02:54:56.148Z,101248.02
2023-05-05T02:57:30.830Z,101243.80
2023-05-05T03:00:07.387Z,101246.59
2023-05-05T03:02:44.425Z,101245.38
2023-05-05T03:05:18.398Z,101241.88
2023-05-05T03:08:01.417Z,101245.20
2023-05-05T03:10:39.334Z,101241.70
2023-05-05T03:13:10.086Z,101237.50
2023-05-05T03:15:45.449Z,101239.95
2023-05-05T03:18:14.931Z,101242.58
2023-05-05T03:20:43.214Z,101240.48
2023-05-05T03:23:14.269Z,101239.77
2023-05-05T03:25:46.102Z,101243.96
2023-05-05T03:28:18.287Z,101240.27
2023-05-05T03:30:45.031Z,101242.20
2023-05-05T03:33:11.915Z,101238.52
2023-05-05T03:35:39.055Z,101244.30
2023-05-05T03:38:06.512Z,101244.48
2023-05-05T03:40:43.596Z,101244.13
2023-05-05T03:43:11.654Z,101245.88
2023-05-05T03:45:38.105Z,101250.43
2023-05-05T03:48:05.362Z,101251.12
2023-05-05T03:50:31.735Z,101251.11
2023-05-05T03:52:58.062Z,101253.02
2023-05-05T03:55:25.185Z,101259.67
2023-05-05T03:57:51.521Z,101268.25
2023-05-05T04:00:18.312Z,101276.31
2023-05-05T04:02:44.829Z,101282.27
2023-05-05T04:05:11.655Z,101284.71
2023-05-05T04:07:38.042Z,101290.14
2023-05-05T04:10:06.179Z,101291.55
2023-05-05T04:12:32.942Z,101296.10
2023-05-05T04:14:59.444Z,101296.45
2023-05-05T04:17:25.902Z,101298.77
2023-05-05T04:19:52.778Z,101300.34
2023-05-05T04:22:19.147Z,101302.45
2023-05-05T04:24:46.536Z,101308.77
2023-05-05T04:27:13.402Z,101316.47
2023-05-05T04:29:39.963Z,101316.13
2023-05-05T04:32:07.005Z,101319.29
2023-05-05T04:34:33.378Z,101323.14
2023-05-05T04:36:59.998Z,101320.85
2023-05-05T04:39:28.149Z,101325.05
2023-05-05T04:41:54.521Z,101329.75
2023-05-05T04:44:20.848Z,101330.10
2023-05-05T04:46:47.400Z,101333.95
2023-05-05T04:49:15.361Z,101340.42
2023-05-05T04:51:42.166Z,101334.30
2023-05-05T04:54:09.299Z,101337.26
2023-05-05T04:56:36.402Z,101341.60
2023-05-05T04:59:02.883Z,101341.23
2023-05-05T05:01:29.836Z,101344.18
2023-05-05T05:03:56.420Z,101343.78
2023-05-05T05:06:22.905Z,101339.17
2023-05-05T05:08:49.573Z,101334.55
2023-05-05T05:11:15.908Z,101332.72
2023-05-05T05:13:42.279Z,101340.37
2023-05-05T05:16:08.684Z,101338.33
2023-05-05T05:18:35.254Z,101338.77
2023-05-05T05:21:02.793Z,101337.59
2023-05-05T05:23:29.149Z,101338.54
2023-05-05T05:25:56.541Z,101334.73
2023-05-05T05:28:23.021Z,101335.48
2023-05-05T05:30:51.969Z,101335.91
2023-05-05T05:33:19.099Z,101333.66
2023-05-05T05:35:45.844Z,101332.64
2023-05-05T05:38:12.680Z,101335.48
2023-05-05T05:40:39.009Z,101334.48
2023-05-05T05:43:05.760Z,101328.38
2023-05-05T05:45:32.485Z,101331.05
2023-05-05T05:47:58.957Z,101332.64
2023-05-05T05:50:27.757Z,101334.60
2023-05-05T05:52:54.780Z,101335.52
2023-05-05T05:55:21.558Z,101338.38
2023-05-05T05:57:47.924Z,101338.20
2023-05-05T06:00:17.874Z,101338.77
2023-05-05T06:02:45.615Z,101336.15
2023-05-05T06:05:14.127Z,101335.47
2023-05-05T06:07:41.245Z,101335.41
2023-05-05T06:10:25.645Z,101337.63
2023-05-05T06:12:54.427Z,101341.94
2023-05-05T06:15:21.080Z,101344.31
2023-05-05T06:17:47.901Z,101346.90
2023-05-05T06:20:14.360Z,101342.77
2023-05-05T06:22:40.733Z,101347.12
2023-05-05T06:25:07.476Z,101347.12
2023-05-05T06:27:34.108Z,101350.08
2023-05-05T06:30:00.482Z,101347.77
2023-05-05T06:32:26.807Z,101346.33
2023-05-05T06:34:53.040Z,101349.59
2023-05-05T06:37:19.445Z,101347.70
2023-05-05T06:39:45.808Z,101350.02
2023-05-05T06:42:12.098Z,101354.55
2023-05-05T06:44:38.519Z,101349.99
2023-05-05T06:47:05.040Z,101350.72
2023-05-05T06:49:31.378Z,101353.50
2023-05-05T06:51:57.842Z,101354.98
2023-05-05T06:54:24.124Z,101360.51
2023-05-05T06:56:50.655Z,101358.79
2023-05-05T06:59:17.721Z,101359.19
2023-05-05T07:01:44.078Z,101355.68
2023-05-05T07:04:10.610Z,101355.53
2023-05-05T07:06:36.931Z,101353.34
2023-05-05T07:09:03.673Z,101352.73
2023-05-05T07:11:30.032Z,101353.70
2023-05-05T07:13:56.327Z,101355.37
2023-05-05T07:16:24.171Z,101352.17
2023-05-05T07:18:50.442Z,101353.55
2023-05-05T07:21:16.757Z,101356.71
2023-05-05T07:23:45.476Z,101355.36
2023-05-05T07:26:11.809Z,101355.09
2023-05-05T07:28:38.062Z,101354.30
2023-05-05T07:31:04.467Z,101353.32
2023-05-05T07:33:30.888Z,101355.64
2023-05-05T07:35:57.230Z,101357.73
2023-05-05T07:38:24.917Z,101355.94
2023-05-05T07:40:51.187Z,101355.92
2023-05-05T07:43:17.520Z,101355.67
2023-05-05T07:45:43.819Z,101360.58
2023-05-05T07:48:10.300Z,101359.79
2023-05-05T07:50:36.705Z,101362.33
2023-05-05T07:53:13.554Z,101361.23
2023-05-05T07:55:40.722Z,101360.86
2023-05-05T07:58:07.704Z,101359.08
2023-05-05T08:00:34.027Z,101360.59
2023-05-05T08:03:00.425Z,101355.48
2023-05-05T08:05:26.864Z,101359.51
2023-05-05T08:07:53.287Z,101352.56
2023-05-05T08:10:21.213Z,101353.02
2023-05-05T08:12:47.906Z,101352.42
2023-05-05T08:15:14.202Z,101353.63
2023-05-05T08:17:52.589Z,101354.57
2023-05-05T08:20:20.082Z,101358.74
2023-05-05T08:22:47.295Z,101357.36
2023-05-05T08:25:13.924Z,101361.02
2023-05-05T08:27:42.144Z,101364.05
2023-05-05T08:30:09.225Z,101363.27
2023-05-05T08:32:35.634Z,101361.05
2023-05-05T08:35:02.802Z,101360.90
2023-05-05T08:37:29.146Z,101358.66
2023-05-05T08:39:57.101Z,101356.57
2023-05-05T08:42:36.084Z,101353.61
2023-05-05T08:45:03.389Z,101355.66
2023-05-05T08:47:31.369Z,101355.50
2023-05-05T08:49:59.033Z,101355.94
2023-05-05T08:52:31.839Z,101353.16
2023-05-05T08:55:05.256Z,101351.02
2023-05-05T08:57:45.773Z,101350.09
2023-05-05T09:00:12.605Z,101348.77
2023-05-05T09:02:42.133Z,101348.61
2023-05-05T09:05:09.163Z,101348.59
2023-05-05T09:07:36.045Z,101354.66
2023-05-05T09:10:03.898Z,101352.17
2023-05-05T09:12:31.096Z,101356.98
2023-05-05T09:14:59.058Z,101358.76
2023-05-05T09:17:26.460Z,101355.83
2023-05-05T09:20:02.109Z,101358.84
2023-05-05T09:22:38.509Z,101354.54
2023-05-05T09:25:06.977Z,101357.89
2023-05-05T09:27:40.062Z,101360.04
2023-05-05T09:30:07.648Z,101360.95
2023-05-05T09:32:48.121Z,101363.88
2023-05-05T09:35:15.680Z,101363.36
2023-05-05T09:37:42.379Z,101358.17
2023-05-05T09:40:10.539Z,101362.71
2023-05-05T09:42:38.054Z,101361.67
2023-05-05T09:45:24.468Z,101365.04
2023-05-05T09:47:52.010Z,101371.48
2023-05-05T09:50:21.536Z,101369.52
2023-05-05T09:52:55.353Z,101367.44
2023-05-05T09:55:23.304Z,101372.02
2023-05-05T09:57:49.742Z,101379.61
2023-05-05T10:00:16.279Z,101382.01
2023-05-05T10:02:42.680Z,101376.71
2023-05-05T10:05:11.997Z,101373.13
2023-05-05T10:07:40.323Z,101377.04
2023-05-05T10:10:14.702Z,101373.60
2023-05-05T10:12:41.538Z,101369.15
2023-05-05T10:15:13.016Z,101364.34
2023-05-05T10:17:57.829Z,101366.41
2023-05-05T10:20:32.658Z,101366.52
2023-05-05T10:23:03.853Z,101369.26
2023-05-05T10:25:38.129Z,101365.44
2023-05-05T10:28:06.034Z,101366.39
2023-05-05T10:30:40.405Z,101368.05
2023-05-05T10:33:54.711Z,101370.86
2023-05-05T10:36:21.946Z,101367.11
2023-05-05T10:38:53.588Z,101369.56
2023-05-05T10:41:20.494Z,101366.99
2023-05-05T10:43:47.624Z,101365.05
2023-05-05T10:46:13.955Z,101368.39
2023-05-05T10:48:48.587Z,101369.07
2023-05-05T10:51:41.303Z,101366.20
2023-05-05T10:54:22.445Z,101367.15
2023-05-05T10:56:49.151Z,101371.95
2023-05-05T10:59:37.484Z,101369.16
2023-05-05T11:02:24.169Z,101363.89
2023-05-05T11:05:08.837Z,101364.36
2023-05-05T11:07:36.321Z,101362.59
2023-05-05T11:10:11.089Z,101361.90
2023-05-05T11:13:01.197Z,101365.53
2023-05-05T11:15:27.830Z,101358.16
2023-05-05T11:17:55.999Z,101360.50
2023-05-05T11:20:35.044Z,101358.82
2023-05-05T11:23:01.306Z,101356.84
2023-05-05T11:25:36.910Z,101357.66
2023-05-05T11:28:11.172Z,101349.76
2023-05-05T11:30:58.810Z,101357.19
2023-05-05T11:33:29.882Z,101358.46
2023-05-05T11:36:09.944Z,101356.16
2023-05-05T11:38:54.892Z,101361.70
2023-05-05T11:41:33.186Z,101362.06
2023-05-05T11:44:19.855Z,101361.05
2023-05-05T11:46:51.905Z,101367.50
2023-05-05T11:49:35.277Z,101363.40
2023-05-05T11:52:07.650Z,101358.30
2023-05-05T11:54:35.801Z,101367.96
2023-05-05T11:57:07.708Z,101367.11
2023-05-05T11:59:36.617Z,101362.73
2023-05-05T12:02:03.790Z,101356.54
2023-05-05T12:04:30.930Z,101354.38
2023-05-05T12:06:58.538Z,101350.39
2023-05-05T12:09:25.112Z,101351.52
2023-05-05T12:11:57.804Z,101357.05
2023-05-05T12:14:25.002Z,101356.06
2023-05-05T12:17:00.639Z,101355.03
2023-05-05T12:19:32.572Z,101345.94
2023-05-05T12:22:03.576Z,101350.23
2023-05-05T12:24:30.382Z,101352.40
2023-05-05T12:27:10.670Z,101348.77
2023-05-05T12:29:37.057Z,101351.02
2023-05-05T12:32:03.865Z,101348.13
2023-05-05T12:34:31.043Z,101345.53
2023-05-05T12:36:57.610Z,101348.53
2023-05-05T12:39:34.167Z,101350.85
2023-05-05T12:42:04.269Z,101347.28
2023-05-05T12:44:35.456Z,101351.04
2023-05-05T12:47:01.901Z,101352.16
2023-05-05T12:49:28.264Z,101350.21
2023-05-05T12:51:56.241Z,101356.48
2023-05-05T12:54:24.334Z,101353.68
2023-05-05T12:56:50.608Z,101355.46
2023-05-05T12:59:20.094Z,101356.39
2023-05-05T13:01:52.073Z,101350.40
2023-05-05T13:04:19.479Z,101353.16
2023-05-05T13:06:48.720Z,101355.10
2023-05-05T13:09:35.606Z,101365.63
2023-05-05T13:12:03.199Z,101361.81
2023-05-05T13:14:31.172Z,101362.30
2023-05-05T13:16:57.547Z,101361.30
2023-05-05T13:19:24.347Z,101360.05
2023-05-05T13:21:51.986Z,101361.12
2023-05-05T13:24:28.530Z,101356.39
2023-05-05T13:27:02.284Z,101355.40
2023-05-05T13:29:31.613Z,101353.20
2023-05-05T13:31:58.673Z,101352.06
2023-05-05T13:34:25.031Z,101353.05
2023-05-05T13:36:51.331Z,101356.94
2023-05-05T13:39:17.770Z,101351.52
2023-05-05T13:41:44.635Z,101347.35
2023-05-05T13:44:11.678Z,101346.77
2023-05-05T13:46:37.993Z,101346.52
2023-05-05T13:49:04.367Z,101349.71
2023-05-05T13:51:30.674Z,101346.92
2023-05-05T13:53:56.972Z,101349.84
2023-05-05T13:56:25.455Z,101344.08
2023-05-05T13:58:51.703Z,101345.10
2023-05-05T14:01:18.049Z,101344.84
2023-05-05T14:03:44.451Z,101348.38
2023-05-05T14:06:10.860Z,101346.75
2023-05-05T14:08:37.258Z,101348.48
2023-05-05T14:11:04.033Z,101353.30
2023-05-05T14:13:30.636Z,101351.07
2023-05-05T14:15:57.678Z,101349.30
2023-05-05T14:18:24.906Z,101351.38
2023-05-05T14:20:51.182Z,101353.11
2023-05-05T14:23:17.476Z,101351.28
2023-05-05T14:25:43.829Z,101349.69
2023-05-05T14:28:10.328Z,101351.41
2023-05-05T14:30:36.594Z,101345.81
2023-05-05T14:33:02.932Z,101342.77
2023-05-05T14:35:30.363Z,101342.48
2023-05-05T14:37:56.686Z,101343.04
2023-05-05T14:40:22.946Z,101337.23
2023-05-05T14:42:50.136Z,101341.37
2023-05-05T14:45:16.566Z,101342.75
2023-05-05T14:47:42.977Z,101345.36
2023-05-05T14:50:09.799Z,101345.58
2023-05-05T14:52:38.591Z,101346.02
2023-05-05T14:55:06.097Z,101347.73
2023-05-05T14:57:32.515Z,101347.45
2023-05-05T15:00:01.080Z,101350.38
2023-05-05T15:02:27.718Z,101354.55
2023-05-05T15:04:54.241Z,101360.64
2023-05-05T15:07:21.881Z,101359.66
2023-05-05T15:09:48.202Z,101357.66
2023-05-05T15:12:14.519Z,101354.52
2023-05-05T15:14:41.512Z,101357.88
2023-05-05T15:17:07.843Z,101353.95
2023-05-05T15:19:34.253Z,101355.36
2023-05-05T15:22:00.654Z,101359.89
2023-05-05T15:24:27.031Z,101361.35
2023-05-05T15:26:53.366Z,101360.85
2023-05-05T15:29:19.719Z,101362.77
2023-05-05T15:31:46.053Z,101368.55
2023-05-05T15:34:12.377Z,101370.23
2023-05-05T15:36:38.620Z,101369.30
2023-05-05T15:39:04.946Z,101366.66
2023-05-05T15:41:33.546Z,101369.31
2023-05-05T15:44:01.350Z,101366.09
2023-05-05T15:46:30.891Z,101364.86
2023-05-05T15:48:57.225Z,101366.55
2023-05-05T15:51:23.667Z,101367.38
2023-05-05T15:53:51.595Z,101369.48
2023-05-05T15:56:18.219Z,101366.52
2023-05-05T15:58:44.638Z,101370.58
2023-05-05T16:01:11.043Z,101366.66
2023-05-05T16:03:37.358Z,101365.61
2023-05-05T16:06:03.687Z,101364.58
2023-05-05T16:08:29.941Z,101366.34
2023-05-05T16:10:56.219Z,101370.23
2023-05-05T16:13:22.552Z,101364.97
2023-05-05T16:15:48.895Z,101367.43
2023-05-05T16:18:15.271Z,101371.48
2023-05-05T16:20:41.548Z,101366.34
2023-05-05T16:23:08.002Z,101366.65
2023-05-05T16:25:34.376Z,101368.20
2023-05-05T16:28:01.049Z,101365.65
2023-05-05T16:30:28.723Z,101366.04
2023-05-05T16:32:55.080Z,101362.48
2023-05-05T16:35:22.285Z,101360.23
2023-05-05T16:37:48.575Z,101356.63
2023-05-05T16:40:15.159Z,101361.25
2023-05-05T16:42:43.689Z,101362.36
2023-05-05T16:45:10.955Z,101361.67
2023-05-05T16:47:37.412Z,101356.02
2023-05-05T16:50:04.392Z,101356.39
2023-05-05T16:52:30.664Z,101360.95
2023-05-05T16:54:56.982Z,101358.45
2023-05-05T16:57:23.727Z,101358.57
2023-05-05T16:59:50.257Z,101362.17
2023-05-05T17:02:16.568Z,101360.75
2023-05-05T17:04:42.943Z,101365.33
2023-05-05T17:07:09.213Z,101367.23
2023-05-05T17:09:35.500Z,101368.31
2023-05-05T17:12:03.596Z,101372.72
2023-05-05T17:14:30.404Z,101373.61
2023-05-05T17:16:56.636Z,101375.02
2023-05-05T17:19:22.930Z,101373.23
2023-05-05T17:21:49.233Z,101374.80
2023-05-05T17:24:15.565Z,101372.81
2023-05-05T17:26:41.934Z,101377.01
2023-05-05T17:29:08.206Z,101376.94
2023-05-05T17:31:34.574Z,101377.63
2023-05-05T17:34:00.885Z,101379.34
2023-05-05T17:36:27.165Z,101382.67
2023-05-05T17:38:53.458Z,101387.75
2023-05-05T17:41:19.734Z,101387.34
2023-05-05T17:43:46.117Z,101391.52
2023-05-05T17:46:12.482Z,101393.55
2023-05-05T17:48:38.770Z,101397.91
2023-05-05T17:51:05.100Z,101399.77
2023-05-05T17:53:31.386Z,101401.47
2023-05-05T17:55:57.758Z,101404.20
2023-05-05T17:58:24.070Z,101402.38
2023-05-05T18:00:50.623Z,101397.38
2023-05-05T18:03:17.096Z,101401.02
2023-05-05T18:05:43.537Z,101397.09
2023-05-05T18:08:10.482Z,101401.09
2023-05-05T18:10:36.857Z,101398.92
2023-05-05T18:13:03.233Z,101400.98
2023-05-05T18:15:29.608Z,101405.33
2023-05-05T18:17:56.050Z,101408.45
2023-05-05T18:20:22.437Z,101413.53
2023-05-05T18:22:48.878Z,101416.45
2023-05-05T18:25:15.401Z,101414.48
2023-05-05T18:27:43.141Z,101421.47
2023-05-05T18:30:10.086Z,101423.87
2023-05-05T18:32:36.813Z,101428.91
2023-05-05T18:35:03.481Z,101429.38
2023-05-05T18:37:29.766Z,101430.02
2023-05-05T18:39:56.262Z,101432.73
2023-05-05T18:42:22.566Z,101427.38
2023-05-05T18:44:48.881Z,101429.41
2023-05-05T18:47:15.406Z,101428.48
2023-05-05T18:49:41.726Z,101428.59
2023-05-05T18:52:07.965Z,101425.02
2023-05-05T18:54:36.215Z,101427.23
2023-05-05T18:57:03.893Z,101430.66
2023-05-05T18:59:30.208Z,101435.00
2023-05-05T19:01:56.571Z,101435.26
2023-05-05T19:04:30.076Z,101438.32
2023-05-05T19:06:58.596Z,101438.59
2023-05-05T19:09:24.909Z,101441.49
2023-05-05T19:11:51.597Z,101441.74
2023-05-05T19:14:17.919Z,101444.44
2023-05-05T19:16:44.321Z,101442.23
2023-05-05T19:19:10.663Z,101444.61
2023-05-05T19:21:37.388Z,101443.80
2023-05-05T19:24:03.894Z,101446.86
2023-05-05T19:26:31.013Z,101442.38
2023-05-05T19:28:57.388Z,101441.55
2023-05-05T19:31:26.800Z,101439.38
2023-05-05T19:34:00.989Z,101435.40
2023-05-05T19:36:28.240Z,101436.02
2023-05-05T19:38:55.087Z,101439.06
2023-05-05T19:41:21.412Z,101442.47
2023-05-05T19:43:49.108Z,101441.98
2023-05-05T19:46:16.291Z,101443.63
2023-05-05T19:48:42.893Z,101442.95
2023-05-05T19:51:09.177Z,101445.48
2023-05-05T19:53:35.747Z,101440.95
2023-05-05T19:56:02.062Z,101446.80
2023-05-05T19:58:28.310Z,101442.63
2023-05-05T20:00:54.625Z,101441.26
2023-05-05T20:03:21.089Z,101438.46
2023-05-05T20:05:47.579Z,101439.73
2023-05-05T20:08:13.859Z,101438.39
2023-05-05T20:10:40.158Z,101435.97
2023-05-05T20:13:06.607Z,101434.05
2023-05-05T20:15:33.340Z,101428.98
2023-05-05T20:17:59.944Z,101425.35
2023-05-05T20:20:26.281Z,101424.85
2023-05-05T20:22:52.663Z,101427.34
2023-05-05T20:25:19.073Z,101433.88
2023-05-05T20:27:45.574Z,101432.49
2023-05-05T20:30:12.329Z,101437.46
2023-05-05T20:32:38.722Z,101432.40
2023-05-05T20:35:05.509Z,101431.73
2023-05-05T20:37:31.895Z,101433.17
2023-05-05T20:39:58.145Z,101431.27
2023-05-05T20:42:25.580Z,101439.21
2023-05-05T20:44:51.869Z,101436.24
2023-05-05T20:47:18.135Z,101436.81
2023-05-05T20:49:44.380Z,101436.65
2023-05-05T20:52:10.693Z,101444.77
2023-05-05T20:54:38.305Z,101444.23
2023-05-05T20:57:06.684Z,101448.13
2023-05-05T20:59:33.079Z,101449.54
2023-05-05T21:01:59.413Z,101446.73
2023-05-05T21:04:25.782Z,101449.03
2023-05-05T21:06:52.100Z,101449.39
2023-05-05T21:09:20.607Z,101450.64
2023-05-05T21:11:47.882Z,101443.27
2023-05-05T21:14:14.277Z,101441.19
2023-05-05T21:16:41.007Z,101440.67
2023-05-05T21:19:07.461Z,101441.58
2023-05-05T21:21:33.869Z,101445.45
2023-05-05T21:24:00.442Z,101442.66
2023-05-05T21:26:26.752Z,101444.42
2023-05-05T21:28:53.166Z,101446.56
2023-05-05T21:31:22.188Z,101445.16
2023-05-05T21:33:48.915Z,101446.95
2023-05-05T21:36:16.813Z,101446.09
2023-05-05T21:38:43.197Z,101447.16
2023-05-05T21:41:09.515Z,101445.43
2023-05-05T21:43:35.921Z,101449.13
2023-05-05T21:46:04.435Z,101448.62
2023-05-05T21:48:31.818Z,101448.13
2023-05-05T21:50:58.131Z,101450.44
2023-05-05T21:53:24.469Z,101450.96
2023-05-05T21:55:50.919Z,101451.34
2023-05-05T21:58:17.201Z,101449.27
2023-05-05T22:00:44.271Z,101449.27
2023-05-05T22:03:10.600Z,101443.86
2023-05-05T22:05:36.935Z,101446.52
2023-05-05T22:08:03.475Z,101444.79
2023-05-05T22:10:29.759Z,101442.70
2023-05-05T22:12:57.243Z,101442.75
2023-05-05T22:15:27.637Z,101448.22
2023-05-05T22:17:56.395Z,101453.02
2023-05-05T22:20:22.832Z,101446.03
2023-05-05T22:22:49.149Z,101445.02
2023-05-05T22:25:15.533Z,101453.29
2023-05-05T22:27:42.158Z,101449.64
2023-05-05T22:30:08.906Z,101449.50
2023-05-05T22:32:35.220Z,101446.73
2023-05-05T22:35:01.672Z,101444.11
2023-05-05T22:37:28.158Z,101442.73
2023-05-05T22:39:54.409Z,101437.52
2023-05-05T22:42:20.664Z,101434.05
2023-05-05T22:44:47.001Z,101434.77
2023-05-05T22:47:13.402Z,101436.55
2023-05-05T22:49:39.757Z,101439.05
2023-05-05T22:52:06.777Z,101432.76
2023-05-05T22:54:33.057Z,101434.73
2023-05-05T22:56:59.498Z,101432.14
2023-05-05T22:59:25.775Z,101433.91
2023-05-05T23:01:52.113Z,101433.05
2023-05-05T23:04:18.648Z,101436.42
2023-05-05T23:06:45.360Z,101431.19
2023-05-05T23:09:12.014Z,101430.51
2023-05-05T23:11:38.261Z,101429.68
2023-05-05T23:14:04.615Z,101433.73
2023-05-05T23:16:30.909Z,101439.55
2023-05-05T23:18:57.223Z,101439.23
2023-05-05T23:21:23.558Z,101438.38
2023-05-05T23:23:49.839Z,101437.54
2023-05-05T23:26:16.193Z,101434.23
2023-05-05T23:28:42.533Z,101435.84
2023-05-05T23:31:08.867Z,101431.31
2023-05-05T23:33:35.192Z,101435.21
2023-05-05T23:36:01.631Z,101431.55
2023-05-05T23:38:27.929Z,101425.96
2023-05-05T23:40:54.304Z,101425.12
2023-05-05T23:43:20.592Z,101424.27
2023-05-05T23:45:46.945Z,101429.02
2023-05-05T23:48:13.238Z,101430.45
2023-05-05T23:50:39.573Z,101428.02
2023-05-05T23:53:05.936Z,101425.24
2023-05-05T23:55:32.218Z,101425.96
2023-05-05T23:57:58.508Z,101428.62
